sensor_id;sensor_type;location;lat;lon;timestamp;P1;durP1;ratioP1;P2;durP2;ratioP2
51066;SDS011;37112;45.892;-123.962;2022-08-18T00:01:11;2.30;;;0.70;;
51066;SDS011;37112;45.892;-123.962;2022-08-18T00:03:25;1.50;;;0.90;;
51066;SDS011;37112;45.892;-123.962;2022-08-18T00:06:00;1.50;;;0.70;;
51066;SDS011;37112;45.892;-123.962;2022-08-18T00:08:14;0.90;;;0.60;;
51066;SDS011;37112;45.892;-123.962;2022-08-18T00:10:27;1.80;;;0.60;;
51066;SDS011;37112;45.892;-123.962;2022-08-18T00:12:41;2.70;;;0.70;;
51066;SDS011;37112;45.892;-123.962;2022-08-18T00:14:55;3.10;;;1.00;;
51066;SDS011;37112;45.892;-123.962;2022-08-18T00:17:12;1.70;;;0.80;;
51066;SDS011;37112;45.892;-123.962;2022-08-18T00:19:26;1.60;;;0.70;;
51066;SDS011;37112;45.892;-123.962;2022-08-18T00:21:52;1.50;;;0.80;;
51066;SDS011;37112;45.892;-123.962;2022-08-18T00:24:07;2.00;;;0.90;;
51066;SDS011;37112;45.892;-123.962;2022-08-18T00:26:20;1.80;;;1.00;;
51066;SDS011;37112;45.892;-123.962;2022-08-18T00:28:37;2.00;;;0.70;;
51066;SDS011;37112;45.892;-123.962;2022-08-18T00:30:51;44.00;;;10.20;;
51066;SDS011;37112;45.892;-123.962;2022-08-18T00:33:04;43.80;;;8.70;;
51066;SDS011;37112;45.892;-123.962;2022-08-18T00:35:18;43.10;;;8.10;;
51066;SDS011;37112;45.892;-123.962;2022-08-18T00:37:34;43.60;;;8.80;;
51066;SDS011;37112;45.892;-123.962;2022-08-18T00:39:48;56.60;;;11.90;;
51066;SDS011;37112;45.892;-123.962;2022-08-18T00:42:12;56.40;;;9.90;;
51066;SDS011;37112;45.892;-123.962;2022-08-18T00:44:35;35.40;;;6.90;;
51066;SDS011;37112;45.892;-123.962;2022-08-18T00:46:49;9.30;;;2.30;;
51066;SDS011;37112;45.892;-123.962;2022-08-18T00:49:02;6.90;;;1.30;;
51066;SDS011;37112;45.892;-123.962;2022-08-18T00:51:17;2.20;;;1.20;;
51066;SDS011;37112;45.892;-123.962;2022-08-18T00:53:35;3.30;;;0.90;;
51066;SDS011;37112;45.892;-123.962;2022-08-18T00:55:53;4.20;;;1.40;;
51066;SDS011;37112;45.892;-123.962;2022-08-18T00:58:09;2.50;;;0.90;;
51066;SDS011;37112;45.892;-123.962;2022-08-18T01:00:28;1.70;;;0.90;;
51066;SDS011;37112;45.892;-123.962;2022-08-18T01:02:43;2.50;;;1.10;;
51066;SDS011;37112;45.892;-123.962;2022-08-18T01:05:02;4.40;;;1.30;;
51066;SDS011;37112;45.892;-123.962;2022-08-18T01:07:22;1.60;;;1.00;;
51066;SDS011;37112;45.892;-123.962;2022-08-18T01:09:39;1.90;;;0.80;;
51066;SDS011;37112;45.892;-123.962;2022-08-18T01:11:52;2.10;;;0.90;;
51066;SDS011;37112;45.892;-123.962;2022-08-18T01:14:26;2.80;;;1.00;;
51066;SDS011;37112;45.892;-123.962;2022-08-18T01:16:40;3.60;;;1.20;;
51066;SDS011;37112;45.892;-123.962;2022-08-18T01:19:10;38.60;;;8.30;;
51066;SDS011;37112;45.892;-123.962;2022-08-18T01:21:40;20.50;;;4.90;;
51066;SDS011;37112;45.892;-123.962;2022-08-18T01:23:59;36.30;;;8.30;;
51066;SDS011;37112;45.892;-123.962;2022-08-18T01:26:16;39.70;;;8.70;;
51066;SDS011;37112;45.892;-123.962;2022-08-18T01:28:33;31.30;;;6.70;;
51066;SDS011;37112;45.892;-123.962;2022-08-18T01:30:49;54.60;;;12.20;;
51066;SDS011;37112;45.892;-123.962;2022-08-18T01:33:05;7.00;;;2.10;;
51066;SDS011;37112;45.892;-123.962;2022-08-18T01:35:19;5.40;;;1.60;;
51066;SDS011;37112;45.892;-123.962;2022-08-18T01:37:45;4.70;;;1.40;;
51066;SDS011;37112;45.892;-123.962;2022-08-18T01:39:59;2.90;;;1.20;;
51066;SDS011;37112;45.892;-123.962;2022-08-18T01:42:34;4.90;;;1.50;;
51066;SDS011;37112;45.892;-123.962;2022-08-18T01:44:50;3.40;;;1.30;;
51066;SDS011;37112;45.892;-123.962;2022-08-18T01:47:04;7.50;;;1.50;;
51066;SDS011;37112;45.892;-123.962;2022-08-18T01:49:18;3.20;;;1.60;;
51066;SDS011;37112;45.892;-123.962;2022-08-18T01:51:31;21.90;;;6.20;;
51066;SDS011;37112;45.892;-123.962;2022-08-18T01:53:48;76.20;;;20.10;;
51066;SDS011;37112;45.892;-123.962;2022-08-18T01:56:01;64.30;;;16.30;;
51066;SDS011;37112;45.892;-123.962;2022-08-18T01:58:16;51.10;;;12.90;;
51066;SDS011;37112;45.892;-123.962;2022-08-18T02:00:37;58.60;;;13.30;;
51066;SDS011;37112;45.892;-123.962;2022-08-18T02:02:51;60.50;;;12.90;;
51066;SDS011;37112;45.892;-123.962;2022-08-18T02:05:10;75.80;;;18.00;;
51066;SDS011;37112;45.892;-123.962;2022-08-18T02:07:27;58.30;;;14.30;;
51066;SDS011;37112;45.892;-123.962;2022-08-18T02:09:42;59.90;;;14.60;;
51066;SDS011;37112;45.892;-123.962;2022-08-18T02:11:56;32.20;;;7.40;;
51066;SDS011;37112;45.892;-123.962;2022-08-18T02:14:12;41.20;;;11.30;;
51066;SDS011;37112;45.892;-123.962;2022-08-18T02:16:33;52.60;;;16.40;;
51066;SDS011;37112;45.892;-123.962;2022-08-18T02:18:46;39.80;;;9.60;;
51066;SDS011;37112;45.892;-123.962;2022-08-18T02:21:05;149.60;;;31.60;;
51066;SDS011;37112;45.892;-123.962;2022-08-18T02:23:24;50.70;;;13.50;;
51066;SDS011;37112;45.892;-123.962;2022-08-18T02:25:38;56.10;;;10.90;;
51066;SDS011;37112;45.892;-123.962;2022-08-18T02:27:53;42.30;;;12.20;;
51066;SDS011;37112;45.892;-123.962;2022-08-18T02:30:09;88.90;;;18.60;;
51066;SDS011;37112;45.892;-123.962;2022-08-18T02:32:25;85.60;;;17.50;;
51066;SDS011;37112;45.892;-123.962;2022-08-18T02:34:38;51.00;;;12.20;;
51066;SDS011;37112;45.892;-123.962;2022-08-18T02:36:52;49.00;;;13.90;;
51066;SDS011;37112;45.892;-123.962;2022-08-18T02:39:05;35.70;;;9.80;;
51066;SDS011;37112;45.892;-123.962;2022-08-18T02:41:19;43.80;;;9.80;;
51066;SDS011;37112;45.892;-123.962;2022-08-18T02:43:35;38.00;;;9.10;;
51066;SDS011;37112;45.892;-123.962;2022-08-18T02:45:49;39.10;;;9.80;;
51066;SDS011;37112;45.892;-123.962;2022-08-18T02:48:03;47.60;;;11.70;;
51066;SDS011;37112;45.892;-123.962;2022-08-18T02:50:17;41.80;;;10.80;;
51066;SDS011;37112;45.892;-123.962;2022-08-18T02:52:31;65.00;;;15.40;;
51066;SDS011;37112;45.892;-123.962;2022-08-18T02:54:46;41.30;;;13.00;;
51066;SDS011;37112;45.892;-123.962;2022-08-18T02:57:04;54.30;;;16.40;;
51066;SDS011;37112;45.892;-123.962;2022-08-18T02:59:19;75.40;;;18.20;;
51066;SDS011;37112;45.892;-123.962;2022-08-18T03:01:39;44.50;;;13.20;;
51066;SDS011;37112;45.892;-123.962;2022-08-18T03:03:55;51.00;;;11.80;;
51066;SDS011;37112;45.892;-123.962;2022-08-18T03:06:09;46.40;;;11.50;;
51066;SDS011;37112;45.892;-123.962;2022-08-18T03:08:23;56.80;;;12.90;;
51066;SDS011;37112;45.892;-123.962;2022-08-18T03:10:36;53.10;;;14.60;;
51066;SDS011;37112;45.892;-123.962;2022-08-18T03:12:49;59.30;;;14.20;;
51066;SDS011;37112;45.892;-123.962;2022-08-18T03:15:03;87.30;;;20.40;;
51066;SDS011;37112;45.892;-123.962;2022-08-18T03:17:18;85.40;;;20.70;;
51066;SDS011;37112;45.892;-123.962;2022-08-18T03:19:31;53.20;;;10.90;;
51066;SDS011;37112;45.892;-123.962;2022-08-18T03:21:47;34.40;;;10.20;;
51066;SDS011;37112;45.892;-123.962;2022-08-18T03:24:05;34.90;;;8.70;;
51066;SDS011;37112;45.892;-123.962;2022-08-18T03:26:25;36.00;;;9.20;;
51066;SDS011;37112;45.892;-123.962;2022-08-18T03:28:39;38.50;;;9.20;;
51066;SDS011;37112;45.892;-123.962;2022-08-18T03:30:53;29.50;;;8.30;;
51066;SDS011;37112;45.892;-123.962;2022-08-18T03:33:06;35.50;;;9.50;;
51066;SDS011;37112;45.892;-123.962;2022-08-18T03:35:20;16.80;;;5.10;;
51066;SDS011;37112;45.892;-123.962;2022-08-18T03:37:33;11.80;;;2.80;;
51066;SDS011;37112;45.892;-123.962;2022-08-18T03:39:48;5.50;;;1.90;;
51066;SDS011;37112;45.892;-123.962;2022-08-18T03:42:02;10.70;;;2.70;;
51066;SDS011;37112;45.892;-123.962;2022-08-18T03:44:16;8.20;;;2.10;;
51066;SDS011;37112;45.892;-123.962;2022-08-18T03:46:30;11.10;;;2.00;;
51066;SDS011;37112;45.892;-123.962;2022-08-18T03:48:43;9.40;;;1.60;;
51066;SDS011;37112;45.892;-123.962;2022-08-18T03:51:01;6.80;;;2.10;;
51066;SDS011;37112;45.892;-123.962;2022-08-18T03:53:18;7.70;;;1.80;;
51066;SDS011;37112;45.892;-123.962;2022-08-18T03:55:31;6.80;;;1.90;;
51066;SDS011;37112;45.892;-123.962;2022-08-18T03:57:47;3.90;;;1.90;;
51066;SDS011;37112;45.892;-123.962;2022-08-18T04:00:00;6.10;;;1.60;;
51066;SDS011;37112;45.892;-123.962;2022-08-18T04:02:16;9.50;;;1.70;;
51066;SDS011;37112;45.892;-123.962;2022-08-18T04:04:29;10.50;;;2.50;;
51066;SDS011;37112;45.892;-123.962;2022-08-18T04:06:49;5.80;;;1.90;;
51066;SDS011;37112;45.892;-123.962;2022-08-18T04:09:05;9.10;;;2.30;;
51066;SDS011;37112;45.892;-123.962;2022-08-18T04:11:23;6.70;;;1.90;;
51066;SDS011;37112;45.892;-123.962;2022-08-18T04:13:42;8.40;;;1.90;;
51066;SDS011;37112;45.892;-123.962;2022-08-18T04:15:57;8.10;;;2.80;;
51066;SDS011;37112;45.892;-123.962;2022-08-18T04:18:10;5.40;;;2.20;;
51066;SDS011;37112;45.892;-123.962;2022-08-18T04:20:24;6.20;;;2.20;;
51066;SDS011;37112;45.892;-123.962;2022-08-18T04:22:39;8.50;;;2.80;;
51066;SDS011;37112;45.892;-123.962;2022-08-18T04:24:53;8.80;;;2.30;;
51066;SDS011;37112;45.892;-123.962;2022-08-18T04:27:07;11.30;;;3.10;;
51066;SDS011;37112;45.892;-123.962;2022-08-18T04:29:20;7.90;;;2.20;;
51066;SDS011;37112;45.892;-123.962;2022-08-18T04:31:34;6.90;;;2.30;;
51066;SDS011;37112;45.892;-123.962;2022-08-18T04:33:47;10.50;;;2.30;;
51066;SDS011;37112;45.892;-123.962;2022-08-18T04:36:05;7.80;;;2.60;;
51066;SDS011;37112;45.892;-123.962;2022-08-18T04:38:26;9.90;;;2.60;;
51066;SDS011;37112;45.892;-123.962;2022-08-18T04:40:39;10.00;;;2.80;;
51066;SDS011;37112;45.892;-123.962;2022-08-18T04:42:52;43.70;;;10.50;;
51066;SDS011;37112;45.892;-123.962;2022-08-18T04:45:06;77.60;;;17.50;;
51066;SDS011;37112;45.892;-123.962;2022-08-18T04:47:20;76.70;;;15.50;;
51066;SDS011;37112;45.892;-123.962;2022-08-18T04:49:33;40.70;;;10.00;;
51066;SDS011;37112;45.892;-123.962;2022-08-18T04:51:47;39.70;;;9.20;;
51066;SDS011;37112;45.892;-123.962;2022-08-18T04:54:34;34.40;;;8.10;;
51066;SDS011;37112;45.892;-123.962;2022-08-18T04:56:49;53.00;;;10.90;;
51066;SDS011;37112;45.892;-123.962;2022-08-18T04:59:03;74.70;;;14.40;;
51066;SDS011;37112;45.892;-123.962;2022-08-18T05:01:18;68.40;;;13.60;;
51066;SDS011;37112;45.892;-123.962;2022-08-18T05:03:32;98.60;;;15.30;;
51066;SDS011;37112;45.892;-123.962;2022-08-18T05:05:56;94.60;;;18.10;;
51066;SDS011;37112;45.892;-123.962;2022-08-18T05:08:13;74.40;;;14.90;;
51066;SDS011;37112;45.892;-123.962;2022-08-18T05:10:27;73.80;;;15.90;;
51066;SDS011;37112;45.892;-123.962;2022-08-18T05:12:40;94.70;;;17.70;;
51066;SDS011;37112;45.892;-123.962;2022-08-18T05:14:55;81.90;;;19.60;;
51066;SDS011;37112;45.892;-123.962;2022-08-18T05:17:09;83.60;;;23.20;;
51066;SDS011;37112;45.892;-123.962;2022-08-18T05:19:23;89.30;;;17.70;;
51066;SDS011;37112;45.892;-123.962;2022-08-18T05:21:37;92.80;;;19.80;;
51066;SDS011;37112;45.892;-123.962;2022-08-18T05:23:56;101.30;;;19.40;;
51066;SDS011;37112;45.892;-123.962;2022-08-18T05:26:09;100.30;;;18.80;;
51066;SDS011;37112;45.892;-123.962;2022-08-18T05:28:23;96.20;;;20.80;;
51066;SDS011;37112;45.892;-123.962;2022-08-18T05:30:37;96.30;;;19.00;;
51066;SDS011;37112;45.892;-123.962;2022-08-18T05:32:50;71.60;;;17.70;;
51066;SDS011;37112;45.892;-123.962;2022-08-18T05:35:06;90.50;;;16.30;;
51066;SDS011;37112;45.892;-123.962;2022-08-18T05:37:26;68.10;;;17.40;;
51066;SDS011;37112;45.892;-123.962;2022-08-18T05:39:49;164.60;;;34.20;;
51066;SDS011;37112;45.892;-123.962;2022-08-18T05:42:09;153.90;;;31.30;;
51066;SDS011;37112;45.892;-123.962;2022-08-18T05:44:26;162.20;;;35.00;;
51066;SDS011;37112;45.892;-123.962;2022-08-18T05:46:43;145.90;;;32.20;;
51066;SDS011;37112;45.892;-123.962;2022-08-18T05:49:00;121.90;;;26.90;;
51066;SDS011;37112;45.892;-123.962;2022-08-18T05:51:15;147.70;;;30.00;;
51066;SDS011;37112;45.892;-123.962;2022-08-18T05:53:32;152.50;;;36.70;;
51066;SDS011;37112;45.892;-123.962;2022-08-18T05:56:02;167.90;;;35.20;;
51066;SDS011;37112;45.892;-123.962;2022-08-18T05:58:36;284.70;;;55.00;;
51066;SDS011;37112;45.892;-123.962;2022-08-18T06:00:55;239.40;;;50.80;;
51066;SDS011;37112;45.892;-123.962;2022-08-18T06:03:11;182.00;;;39.10;;
51066;SDS011;37112;45.892;-123.962;2022-08-18T06:05:34;178.10;;;38.00;;
51066;SDS011;37112;45.892;-123.962;2022-08-18T06:07:54;204.10;;;38.30;;
51066;SDS011;37112;45.892;-123.962;2022-08-18T06:10:10;179.10;;;34.20;;
51066;SDS011;37112;45.892;-123.962;2022-08-18T06:12:25;134.50;;;30.60;;
51066;SDS011;37112;45.892;-123.962;2022-08-18T06:14:44;152.40;;;28.00;;
51066;SDS011;37112;45.892;-123.962;2022-08-18T06:16:58;110.80;;;25.40;;
51066;SDS011;37112;45.892;-123.962;2022-08-18T06:19:21;125.00;;;25.20;;
51066;SDS011;37112;45.892;-123.962;2022-08-18T06:21:42;112.40;;;23.30;;
51066;SDS011;37112;45.892;-123.962;2022-08-18T06:24:04;110.30;;;21.90;;
51066;SDS011;37112;45.892;-123.962;2022-08-18T06:26:29;253.00;;;51.60;;
51066;SDS011;37112;45.892;-123.962;2022-08-18T06:28:52;261.60;;;53.20;;
51066;SDS011;37112;45.892;-123.962;2022-08-18T06:31:15;249.00;;;46.80;;
51066;SDS011;37112;45.892;-123.962;2022-08-18T06:33:38;240.50;;;45.20;;
51066;SDS011;37112;45.892;-123.962;2022-08-18T06:35:59;218.90;;;40.50;;
51066;SDS011;37112;45.892;-123.962;2022-08-18T06:38:31;186.50;;;41.60;;
51066;SDS011;37112;45.892;-123.962;2022-08-18T06:41:01;155.20;;;33.30;;
51066;SDS011;37112;45.892;-123.962;2022-08-18T06:43:40;153.90;;;31.10;;
51066;SDS011;37112;45.892;-123.962;2022-08-18T06:46:08;141.00;;;28.60;;
51066;SDS011;37112;45.892;-123.962;2022-08-18T06:48:28;107.60;;;23.80;;
51066;SDS011;37112;45.892;-123.962;2022-08-18T06:50:49;77.70;;;18.30;;
51066;SDS011;37112;45.892;-123.962;2022-08-18T06:53:07;74.20;;;15.30;;
51066;SDS011;37112;45.892;-123.962;2022-08-18T06:55:34;60.00;;;12.60;;
51066;SDS011;37112;45.892;-123.962;2022-08-18T06:57:53;45.90;;;10.20;;
51066;SDS011;37112;45.892;-123.962;2022-08-18T07:00:09;38.90;;;9.30;;
51066;SDS011;37112;45.892;-123.962;2022-08-18T07:02:49;40.30;;;9.60;;
51066;SDS011;37112;45.892;-123.962;2022-08-18T07:05:05;29.60;;;6.60;;
51066;SDS011;37112;45.892;-123.962;2022-08-18T07:07:31;33.10;;;8.60;;
51066;SDS011;37112;45.892;-123.962;2022-08-18T07:09:46;22.50;;;7.00;;
51066;SDS011;37112;45.892;-123.962;2022-08-18T07:12:01;26.80;;;6.20;;
51066;SDS011;37112;45.892;-123.962;2022-08-18T07:14:19;21.60;;;5.10;;
51066;SDS011;37112;45.892;-123.962;2022-08-18T07:16:33;19.20;;;5.70;;
51066;SDS011;37112;45.892;-123.962;2022-08-18T07:19:07;24.50;;;6.40;;
51066;SDS011;37112;45.892;-123.962;2022-08-18T07:21:26;42.10;;;10.30;;
51066;SDS011;37112;45.892;-123.962;2022-08-18T07:23:40;46.70;;;12.50;;
51066;SDS011;37112;45.892;-123.962;2022-08-18T07:26:14;64.00;;;14.80;;
51066;SDS011;37112;45.892;-123.962;2022-08-18T07:28:32;104.70;;;24.20;;
51066;SDS011;37112;45.892;-123.962;2022-08-18T07:30:47;164.90;;;31.60;;
51066;SDS011;37112;45.892;-123.962;2022-08-18T07:33:21;148.00;;;32.10;;
51066;SDS011;37112;45.892;-123.962;2022-08-18T07:35:37;171.90;;;34.10;;
51066;SDS011;37112;45.892;-123.962;2022-08-18T07:37:55;158.10;;;31.00;;
51066;SDS011;37112;45.892;-123.962;2022-08-18T07:40:34;152.30;;;29.20;;
51066;SDS011;37112;45.892;-123.962;2022-08-18T07:42:53;156.50;;;29.60;;
51066;SDS011;37112;45.892;-123.962;2022-08-18T07:45:13;135.40;;;26.00;;
51066;SDS011;37112;45.892;-123.962;2022-08-18T07:47:37;125.20;;;23.50;;
51066;SDS011;37112;45.892;-123.962;2022-08-18T07:50:00;117.30;;;24.60;;
51066;SDS011;37112;45.892;-123.962;2022-08-18T07:52:37;119.60;;;25.00;;
51066;SDS011;37112;45.892;-123.962;2022-08-18T07:55:00;110.30;;;22.00;;
51066;SDS011;37112;45.892;-123.962;2022-08-18T07:57:22;117.00;;;23.70;;
51066;SDS011;37112;45.892;-123.962;2022-08-18T07:59:49;97.70;;;20.00;;
51066;SDS011;37112;45.892;-123.962;2022-08-18T08:02:30;94.70;;;19.90;;
51066;SDS011;37112;45.892;-123.962;2022-08-18T08:05:00;87.00;;;18.10;;
51066;SDS011;37112;45.892;-123.962;2022-08-18T08:07:25;69.00;;;15.70;;
51066;SDS011;37112;45.892;-123.962;2022-08-18T08:09:44;51.30;;;12.40;;
51066;SDS011;37112;45.892;-123.962;2022-08-18T08:12:03;61.80;;;15.30;;
51066;SDS011;37112;45.892;-123.962;2022-08-18T08:14:31;66.40;;;14.20;;
51066;SDS011;37112;45.892;-123.962;2022-08-18T08:16:50;79.50;;;16.80;;
51066;SDS011;37112;45.892;-123.962;2022-08-18T08:22:07;181.80;;;34.80;;
51066;SDS011;37112;45.892;-123.962;2022-08-18T08:24:29;140.30;;;30.00;;
51066;SDS011;37112;45.892;-123.962;2022-08-18T08:26:52;148.80;;;30.10;;
51066;SDS011;37112;45.892;-123.962;2022-08-18T08:29:16;128.30;;;26.00;;
51066;SDS011;37112;45.892;-123.962;2022-08-18T08:31:40;146.50;;;30.90;;
51066;SDS011;37112;45.892;-123.962;2022-08-18T08:34:04;201.20;;;40.10;;
51066;SDS011;37112;45.892;-123.962;2022-08-18T08:36:23;280.60;;;55.10;;
51066;SDS011;37112;45.892;-123.962;2022-08-18T08:38:39;246.30;;;47.00;;
51066;SDS011;37112;45.892;-123.962;2022-08-18T08:40:56;221.70;;;44.40;;
51066;SDS011;37112;45.892;-123.962;2022-08-18T08:43:13;213.00;;;39.50;;
51066;SDS011;37112;45.892;-123.962;2022-08-18T08:45:29;190.40;;;41.40;;
51066;SDS011;37112;45.892;-123.962;2022-08-18T08:47:47;183.50;;;35.90;;
51066;SDS011;37112;45.892;-123.962;2022-08-18T08:50:15;172.10;;;35.90;;
51066;SDS011;37112;45.892;-123.962;2022-08-18T08:52:34;138.80;;;30.40;;
51066;SDS011;37112;45.892;-123.962;2022-08-18T08:54:52;174.90;;;33.40;;
51066;SDS011;37112;45.892;-123.962;2022-08-18T08:57:07;232.00;;;42.60;;
51066;SDS011;37112;45.892;-123.962;2022-08-18T08:59:23;243.70;;;45.50;;
51066;SDS011;37112;45.892;-123.962;2022-08-18T09:01:36;188.30;;;36.60;;
51066;SDS011;37112;45.892;-123.962;2022-08-18T09:03:58;183.80;;;36.10;;
51066;SDS011;37112;45.892;-123.962;2022-08-18T09:06:23;290.10;;;55.30;;
51066;SDS011;37112;45.892;-123.962;2022-08-18T09:08:53;342.50;;;62.50;;
51066;SDS011;37112;45.892;-123.962;2022-08-18T09:11:30;310.90;;;60.30;;
51066;SDS011;37112;45.892;-123.962;2022-08-18T09:14:09;295.00;;;57.10;;
51066;SDS011;37112;45.892;-123.962;2022-08-18T09:16:42;275.60;;;50.20;;
51066;SDS011;37112;45.892;-123.962;2022-08-18T09:19:16;267.80;;;51.20;;
51066;SDS011;37112;45.892;-123.962;2022-08-18T09:21:44;196.60;;;39.70;;
51066;SDS011;37112;45.892;-123.962;2022-08-18T09:24:08;199.20;;;37.90;;
51066;SDS011;37112;45.892;-123.962;2022-08-18T09:26:40;180.80;;;36.70;;
51066;SDS011;37112;45.892;-123.962;2022-08-18T09:28:57;153.20;;;31.20;;
51066;SDS011;37112;45.892;-123.962;2022-08-18T09:31:22;202.80;;;36.30;;
51066;SDS011;37112;45.892;-123.962;2022-08-18T09:33:47;251.10;;;46.80;;
51066;SDS011;37112;45.892;-123.962;2022-08-18T09:36:19;177.70;;;33.10;;
51066;SDS011;37112;45.892;-123.962;2022-08-18T09:38:48;151.50;;;28.10;;
51066;SDS011;37112;45.892;-123.962;2022-08-18T09:41:50;124.30;;;25.10;;
51066;SDS011;37112;45.892;-123.962;2022-08-18T09:44:05;132.00;;;23.10;;
51066;SDS011;37112;45.892;-123.962;2022-08-18T09:46:51;129.60;;;24.60;;
51066;SDS011;37112;45.892;-123.962;2022-08-18T09:51:58;165.60;;;32.50;;
51066;SDS011;37112;45.892;-123.962;2022-08-18T09:54:31;148.50;;;29.70;;
51066;SDS011;37112;45.892;-123.962;2022-08-18T09:57:14;133.10;;;25.30;;
51066;SDS011;37112;45.892;-123.962;2022-08-18T10:02:02;112.10;;;24.20;;
51066;SDS011;37112;45.892;-123.962;2022-08-18T10:04:34;104.80;;;22.60;;
51066;SDS011;37112;45.892;-123.962;2022-08-18T10:06:56;77.80;;;16.00;;
51066;SDS011;37112;45.892;-123.962;2022-08-18T10:09:30;62.60;;;16.10;;
51066;SDS011;37112;45.892;-123.962;2022-08-18T10:11:55;86.10;;;19.10;;
51066;SDS011;37112;45.892;-123.962;2022-08-18T10:14:40;70.10;;;15.10;;
51066;SDS011;37112;45.892;-123.962;2022-08-18T10:17:15;72.90;;;14.90;;
51066;SDS011;37112;45.892;-123.962;2022-08-18T10:19:41;68.50;;;14.40;;
51066;SDS011;37112;45.892;-123.962;2022-08-18T10:22:06;60.20;;;13.50;;
51066;SDS011;37112;45.892;-123.962;2022-08-18T10:24:40;67.80;;;14.50;;
51066;SDS011;37112;45.892;-123.962;2022-08-18T10:27:02;66.00;;;14.40;;
51066;SDS011;37112;45.892;-123.962;2022-08-18T10:34:59;83.30;;;16.10;;
51066;SDS011;37112;45.892;-123.962;2022-08-18T10:37:13;61.00;;;14.30;;
51066;SDS011;37112;45.892;-123.962;2022-08-18T10:39:44;66.40;;;15.40;;
51066;SDS011;37112;45.892;-123.962;2022-08-18T10:42:02;67.40;;;16.40;;
51066;SDS011;37112;45.892;-123.962;2022-08-18T10:44:23;86.30;;;18.00;;
51066;SDS011;37112;45.892;-123.962;2022-08-18T10:46:41;74.00;;;17.60;;
51066;SDS011;37112;45.892;-123.962;2022-08-18T10:48:59;85.50;;;18.10;;
51066;SDS011;37112;45.892;-123.962;2022-08-18T10:51:26;75.10;;;17.70;;
51066;SDS011;37112;45.892;-123.962;2022-08-18T10:54:09;88.10;;;17.00;;
51066;SDS011;37112;45.892;-123.962;2022-08-18T10:56:38;74.30;;;16.60;;
51066;SDS011;37112;45.892;-123.962;2022-08-18T10:59:08;66.10;;;15.10;;
51066;SDS011;37112;45.892;-123.962;2022-08-18T11:01:41;64.00;;;14.40;;
51066;SDS011;37112;45.892;-123.962;2022-08-18T11:04:07;64.60;;;15.00;;
51066;SDS011;37112;45.892;-123.962;2022-08-18T11:06:43;60.50;;;14.30;;
51066;SDS011;37112;45.892;-123.962;2022-08-18T11:09:00;70.50;;;16.20;;
51066;SDS011;37112;45.892;-123.962;2022-08-18T11:11:18;48.70;;;13.30;;
51066;SDS011;37112;45.892;-123.962;2022-08-18T11:13:48;54.10;;;13.60;;
51066;SDS011;37112;45.892;-123.962;2022-08-18T11:16:10;57.40;;;13.10;;
51066;SDS011;37112;45.892;-123.962;2022-08-18T11:18:35;55.00;;;12.90;;
51066;SDS011;37112;45.892;-123.962;2022-08-18T11:20:50;56.50;;;12.80;;
51066;SDS011;37112;45.892;-123.962;2022-08-18T11:23:03;42.30;;;11.40;;
51066;SDS011;37112;45.892;-123.962;2022-08-18T11:25:26;54.70;;;12.70;;
51066;SDS011;37112;45.892;-123.962;2022-08-18T11:27:43;44.50;;;12.20;;
51066;SDS011;37112;45.892;-123.962;2022-08-18T11:30:00;47.90;;;12.60;;
51066;SDS011;37112;45.892;-123.962;2022-08-18T11:32:18;58.70;;;13.30;;
51066;SDS011;37112;45.892;-123.962;2022-08-18T11:34:40;55.30;;;12.60;;
51066;SDS011;37112;45.892;-123.962;2022-08-18T11:36:59;50.10;;;12.60;;
51066;SDS011;37112;45.892;-123.962;2022-08-18T11:39:15;47.20;;;11.90;;
51066;SDS011;37112;45.892;-123.962;2022-08-18T11:41:43;37.50;;;10.50;;
51066;SDS011;37112;45.892;-123.962;2022-08-18T11:43:57;39.60;;;10.80;;
51066;SDS011;37112;45.892;-123.962;2022-08-18T11:46:13;36.90;;;10.30;;
51066;SDS011;37112;45.892;-123.962;2022-08-18T11:48:37;39.20;;;12.00;;
51066;SDS011;37112;45.892;-123.962;2022-08-18T11:51:19;44.90;;;11.00;;
51066;SDS011;37112;45.892;-123.962;2022-08-18T11:53:38;36.10;;;11.10;;
51066;SDS011;37112;45.892;-123.962;2022-08-18T11:56:22;41.10;;;9.90;;
51066;SDS011;37112;45.892;-123.962;2022-08-18T11:58:43;36.10;;;9.20;;
51066;SDS011;37112;45.892;-123.962;2022-08-18T12:00:59;32.70;;;9.10;;
51066;SDS011;37112;45.892;-123.962;2022-08-18T12:03:18;28.60;;;8.60;;
51066;SDS011;37112;45.892;-123.962;2022-08-18T12:05:43;35.10;;;8.30;;
51066;SDS011;37112;45.892;-123.962;2022-08-18T12:08:02;35.10;;;7.80;;
51066;SDS011;37112;45.892;-123.962;2022-08-18T12:10:44;28.90;;;6.90;;
51066;SDS011;37112;45.892;-123.962;2022-08-18T12:12:57;24.70;;;7.10;;
51066;SDS011;37112;45.892;-123.962;2022-08-18T12:15:25;23.10;;;6.40;;
51066;SDS011;37112;45.892;-123.962;2022-08-18T12:18:00;17.20;;;5.20;;
51066;SDS011;37112;45.892;-123.962;2022-08-18T12:20:13;17.40;;;5.50;;
51066;SDS011;37112;45.892;-123.962;2022-08-18T12:22:28;22.70;;;5.40;;
51066;SDS011;37112;45.892;-123.962;2022-08-18T12:24:42;16.20;;;5.80;;
51066;SDS011;37112;45.892;-123.962;2022-08-18T12:26:56;30.00;;;5.90;;
51066;SDS011;37112;45.892;-123.962;2022-08-18T12:29:27;20.00;;;4.90;;
51066;SDS011;37112;45.892;-123.962;2022-08-18T12:31:50;15.40;;;5.30;;
51066;SDS011;37112;45.892;-123.962;2022-08-18T12:34:04;15.30;;;5.40;;
51066;SDS011;37112;45.892;-123.962;2022-08-18T12:36:20;16.70;;;4.90;;
51066;SDS011;37112;45.892;-123.962;2022-08-18T12:38:34;16.20;;;4.80;;
51066;SDS011;37112;45.892;-123.962;2022-08-18T12:40:57;20.50;;;5.00;;
51066;SDS011;37112;45.892;-123.962;2022-08-18T12:43:11;19.20;;;4.90;;
51066;SDS011;37112;45.892;-123.962;2022-08-18T12:45:25;21.20;;;5.50;;
51066;SDS011;37112;45.892;-123.962;2022-08-18T12:47:39;20.40;;;5.90;;
51066;SDS011;37112;45.892;-123.962;2022-08-18T12:49:52;22.40;;;5.10;;
51066;SDS011;37112;45.892;-123.962;2022-08-18T12:52:07;19.00;;;4.70;;
51066;SDS011;37112;45.892;-123.962;2022-08-18T12:54:22;15.60;;;4.40;;
51066;SDS011;37112;45.892;-123.962;2022-08-18T12:56:35;10.40;;;4.60;;
51066;SDS011;37112;45.892;-123.962;2022-08-18T12:58:50;23.70;;;5.80;;
51066;SDS011;37112;45.892;-123.962;2022-08-18T13:01:03;21.30;;;6.00;;
51066;SDS011;37112;45.892;-123.962;2022-08-18T13:03:16;29.20;;;6.80;;
51066;SDS011;37112;45.892;-123.962;2022-08-18T13:05:32;31.30;;;6.30;;
51066;SDS011;37112;45.892;-123.962;2022-08-18T13:07:46;26.80;;;5.60;;
51066;SDS011;37112;45.892;-123.962;2022-08-18T13:09:59;26.80;;;5.30;;
51066;SDS011;37112;45.892;-123.962;2022-08-18T13:12:27;23.30;;;5.60;;
51066;SDS011;37112;45.892;-123.962;2022-08-18T13:14:40;21.20;;;4.70;;
51066;SDS011;37112;45.892;-123.962;2022-08-18T13:16:54;24.10;;;4.90;;
51066;SDS011;37112;45.892;-123.962;2022-08-18T13:19:07;21.40;;;6.30;;
51066;SDS011;37112;45.892;-123.962;2022-08-18T13:21:20;28.00;;;5.90;;